Time;durP1;ratioP1;P1;durP2;ratioP2;P2;SDS_P1;SDS_P2;PMS_P1;PMS_P2;Temp;Humidity;BMP_temperature;BMP_pressure;BME280_temperature;BME280_humidity;BME280_pressure;Samples;Min_cycle;Max_cycle;Signal;HPM_P1;HPM_P2
2023/01/01 00:00:11;;;;;;;10.95;7.13;;;;;;;1.76;86.71;97844.47;5051914;28;20088;-64
2023/01/01 00:02:41;;;;;;;14.65;7.60;;;;;;;1.73;86.36;97843.53;5051795;28;20101;-63
2023/01/01 00:05:11;;;;;;;13.48;7.63;;;;;;;1.76;86.33;97846.19;5051858;27;20045;-61
2023/01/01 00:07:38;;;;;;;11.40;7.88;;;;;;;1.70;86.72;97848.66;5051114;28;20101;-64
2023/01/01 00:12:51;;;;;;;18.40;10.05;;;;;;;1.79;87.33;97848.81;5051839;28;20052;-62
2023/01/01 00:15:20;;;;;;;17.52;9.95;;;;;;;1.86;87.58;97845.50;5051629;28;20052;-60
2023/01/01 00:17:50;;;;;;;12.07;7.93;;;;;;;1.94;87.24;97848.22;5051423;28;20099;-66
2023/01/01 00:20:18;;;;;;;17.65;9.68;;;;;;;1.82;87.22;97848.88;5051604;28;20052;-62
2023/01/01 00:22:46;;;;;;;11.35;7.63;;;;;;;1.83;87.94;97848.03;5051553;28;20566;-61
2023/01/01 00:25:14;;;;;;;15.95;9.32;;;;;;;1.83;88.73;97845.44;5051587;28;20572;-62
2023/01/01 00:27:42;;;;;;;13.85;8.13;;;;;;;1.96;88.03;97849.09;5051474;28;20055;-62
2023/01/01 00:30:13;;;;;;;10.30;7.38;;;;;;;1.95;87.46;97846.50;5051145;28;20105;-64
2023/01/01 00:32:43;;;;;;;10.00;6.72;;;;;;;1.89;87.17;97847.25;5051130;28;20126;-64
2023/01/01 00:35:14;;;;;;;9.95;7.00;;;;;;;1.90;87.19;97846.44;5051285;28;20076;-63
2023/01/01 00:37:56;;;;;;;15.55;9.35;;;;;;;1.93;86.75;97850.78;5051184;28;20045;-61
2023/01/01 00:40:23;;;;;;;18.67;11.27;;;;;;;1.97;86.81;97855.16;5050912;28;20123;-65
2023/01/01 00:42:51;;;;;;;18.45;11.02;;;;;;;2.00;87.28;97848.34;5051136;28;20045;-62
2023/01/01 00:45:22;;;;;;;18.30;12.10;;;;;;;2.07;86.94;97859.63;5051106;28;20387;-64
2023/01/01 00:48:00;;;;;;;23.65;12.85;;;;;;;2.09;85.71;97863.13;5051214;28;20045;-64
2023/01/01 00:50:29;;;;;;;16.25;10.15;;;;;;;2.08;85.37;97863.94;5051090;28;20041;-65
2023/01/01 00:52:57;;;;;;;15.82;9.27;;;;;;;2.04;85.30;97866.47;5051140;28;20451;-64
2023/01/01 00:55:28;;;;;;;21.52;13.30;;;;;;;2.04;85.51;97863.88;5050967;28;20098;-63
2023/01/01 00:57:56;;;;;;;26.35;15.18;;;;;;;2.05;85.54;97861.34;5050872;28;20052;-64
2023/01/01 01:00:23;;;;;;;21.08;12.13;;;;;;;2.05;85.94;97860.44;5050911;28;20044;-63
2023/01/01 01:02:50;;;;;;;28.40;14.25;;;;;;;2.01;85.92;97855.22;5050847;28;20090;-61
2023/01/01 01:05:18;;;;;;;9.85;6.60;;;;;;;2.00;84.80;97845.75;5050880;28;20127;-59
2023/01/01 01:07:47;;;;;;;10.95;7.20;;;;;;;1.87;85.57;97851.53;5050950;28;20061;-60
2023/01/01 01:10:14;;;;;;;15.25;8.25;;;;;;;1.71;85.50;97848.69;5050889;28;20059;-63
2023/01/01 01:12:43;;;;;;;22.60;13.38;;;;;;;1.67;86.12;97848.59;5050822;28;20049;-65
2023/01/01 01:15:13;;;;;;;13.57;7.95;;;;;;;1.57;86.26;97845.88;5050785;28;20056;-60
2023/01/01 01:17:41;;;;;;;13.10;7.60;;;;;;;1.51;86.38;97841.44;5050663;28;20402;-61
2023/01/01 01:20:09;;;;;;;11.82;6.90;;;;;;;1.51;86.21;97844.00;5049527;28;20052;-63
2023/01/01 01:22:37;;;;;;;12.00;6.57;;;;;;;1.53;85.75;97840.59;5050622;28;20056;-65
2023/01/01 01:25:07;;;;;;;14.80;7.60;;;;;;;1.58;86.64;97846.72;5050659;28;20045;-63
2023/01/01 01:27:34;;;;;;;;;;;;;;;1.43;86.73;97843.00;5051016;28;20053;-64
2023/01/01 01:30:01;;;;;;;10.57;6.50;;;;;;;1.36;88.17;97841.16;5050471;28;20393;-62
2023/01/01 01:32:28;;;;;;;11.55;6.50;;;;;;;1.41;87.90;97841.25;5050428;28;20056;-62
2023/01/01 01:34:56;;;;;;;10.18;7.45;;;;;;;1.41;88.18;97836.09;5050453;28;20440;-62
2023/01/01 01:37:23;;;;;;;10.85;6.95;;;;;;;1.40;88.03;97835.22;5050272;28;20126;-64
2023/01/01 01:39:51;;;;;;;10.13;7.05;;;;;;;1.29;88.08;97816.94;5050319;28;20424;-63
2023/01/01 01:42:25;;;;;;;10.15;6.50;;;;;;;1.39;88.17;97829.16;5050103;28;20045;-64
2023/01/01 01:44:57;;;;;;;11.80;6.63;;;;;;;1.38;88.54;97830.00;5050308;28;20467;-65
2023/01/01 01:47:29;;;;;;;8.90;6.93;;;;;;;1.43;88.87;97832.69;5050325;28;20498;-65
2023/01/01 01:50:02;;;;;;;10.13;6.68;;;;;;;1.50;88.18;97829.38;5050293;28;20529;-61
2023/01/01 01:52:31;;;;;;;15.68;7.95;;;;;;;1.55;87.86;97839.78;5050206;28;20045;-60
2023/01/01 01:55:01;;;;;;;11.20;6.75;;;;;;;1.61;87.28;97837.34;5050135;28;20128;-65
2023/01/01 01:57:33;;;;;;;15.35;8.50;;;;;;;1.57;86.83;97839.81;5050058;28;20053;-64
2023/01/01 02:00:03;;;;;;;11.50;7.55;;;;;;;1.55;86.58;97844.06;5049959;28;20505;-65
2023/01/01 02:02:35;;;;;;;11.07;6.90;;;;;;;1.53;86.69;97850.94;5049929;28;20391;-64
2023/01/01 02:05:06;;;;;;;11.00;7.30;;;;;;;1.55;87.64;97838.91;5050011;28;20053;-63
2023/01/01 02:07:34;;;;;;;10.95;6.85;;;;;;;1.47;87.62;97842.22;5049970;28;20080;-61
2023/01/01 02:10:02;;;;;;;11.13;7.72;;;;;;;1.47;88.64;97838.75;5049843;28;20076;-65
2023/01/01 02:12:31;;;;;;;14.50;8.23;;;;;;;1.46;88.72;97832.75;5050039;28;20045;-62
2023/01/01 02:14:59;;;;;;;15.30;8.90;;;;;;;1.47;88.36;97834.47;5049855;28;20049;-63
2023/01/01 02:17:32;;;;;;;10.07;7.07;;;;;;;1.39;88.39;97830.91;5049822;28;20060;-62
2023/01/01 02:20:16;;;;;;;9.05;6.70;;;;;;;1.45;88.63;97837.88;5049701;28;20056;-66
2023/01/01 02:23:22;;;;;;;12.13;7.78;;;;;;;1.43;88.42;97842.13;5049857;28;20049;-64
2023/01/01 02:26:07;;;;;;;14.23;8.00;;;;;;;1.44;87.93;97844.72;5055271;28;20041;-65
2023/01/01 02:28:47;;;;;;;14.48;9.35;;;;;;;1.45;88.36;97846.50;5049823;28;20558;-61
2023/01/01 02:31:18;;;;;;;23.10;13.60;;;;;;;1.53;88.49;97846.63;5051091;28;20049;-65
2023/01/01 02:33:46;;;;;;;11.13;7.80;;;;;;;1.57;88.05;97843.28;5053259;28;20479;-66
2023/01/01 02:36:14;;;;;;;10.02;6.63;;;;;;;1.61;87.12;97851.94;5053234;28;20535;-61
2023/01/01 02:38:45;;;;;;;11.77;7.55;;;;;;;1.58;86.04;97852.75;5053036;28;20059;-61
2023/01/01 02:41:15;;;;;;;10.50;7.15;;;;;;;1.47;86.36;97851.66;5052924;28;20071;-62
2023/01/01 02:43:46;;;;;;;13.85;7.13;;;;;;;1.41;86.07;97855.00;5053128;28;20057;-63
2023/01/01 02:46:13;;;;;;;;;;;;;;;1.29;86.64;97847.88;5053388;28;20456;-62
2023/01/01 02:48:42;;;;;;;11.80;8.02;;;;;;;1.19;88.21;97849.41;5053007;28;19928;-63
2023/01/01 02:51:21;;;;;;;15.88;8.85;;;;;;;1.16;89.35;97840.72;5052895;28;20121;-63
2023/01/01 02:53:58;;;;;;;15.07;7.97;;;;;;;1.18;89.28;97837.38;5052952;28;20052;-61
2023/01/01 02:56:39;;;;;;;14.05;7.45;;;;;;;1.15;88.87;97837.31;5052860;28;20052;-63
2023/01/01 03:02:12;;;;;;;10.70;6.97;;;;;;;1.22;88.68;97833.13;5052977;28;20055;-62
2023/01/01 03:04:48;;;;;;;10.45;6.70;;;;;;;1.19;88.17;97833.94;5052751;28;20498;-66
2023/01/01 03:07:24;;;;;;;11.40;7.15;;;;;;;1.09;88.67;97824.28;5052620;28;20127;-64
2023/01/01 03:09:57;;;;;;;13.50;7.05;;;;;;;1.02;89.89;97838.75;5052699;28;20052;-63
2023/01/01 03:12:39;;;;;;;10.38;6.90;;;;;;;0.99;90.34;97839.56;5052648;28;20060;-63
2023/01/01 03:15:16;;;;;;;9.77;7.22;;;;;;;1.02;90.59;97838.75;5052535;28;20059;-62
2023/01/01 03:17:50;;;;;;;13.40;6.97;;;;;;;1.02;90.58;97841.31;5052610;28;20086;-64
2023/01/01 03:20:23;;;;;;;11.80;6.30;;;;;;;0.97;90.67;97846.38;5052430;28;20045;-62
2023/01/01 03:22:52;;;;;;;12.10;6.85;;;;;;;0.98;90.28;97842.09;5052649;28;20049;-65
2023/01/01 03:25:24;;;;;;;10.80;6.13;;;;;;;0.99;90.18;97833.53;5052542;28;20048;-61
2023/01/01 03:27:56;;;;;;;8.75;6.28;;;;;;;1.07;89.84;97836.25;5052552;28;20105;-63
2023/01/01 03:30:26;;;;;;;8.50;5.90;;;;;;;1.11;89.32;97833.78;5052515;28;20056;-62
2023/01/01 03:33:00;;;;;;;8.25;4.75;;;;;;;1.13;88.90;97833.81;5052456;28;20049;-61
2023/01/01 03:35:35;;;;;;;7.88;5.78;;;;;;;1.08;89.32;97836.28;5052257;28;20059;-60
2023/01/01 03:38:04;;;;;;;8.40;6.28;;;;;;;1.10;88.97;97837.22;5052242;28;20053;-65
2023/01/01 03:40:34;;;;;;;9.90;6.63;;;;;;;1.08;88.81;97845.75;5051906;28;20045;-63
2023/01/01 03:43:08;;;;;;;7.90;5.93;;;;;;;1.11;88.71;97843.22;5051277;28;20443;-61
2023/01/01 03:45:40;;;;;;;12.02;6.72;;;;;;;1.04;89.14;97843.94;5052203;28;20394;-62
2023/01/01 03:48:09;;;;;;;10.45;6.57;;;;;;;1.01;89.80;97839.59;5052241;28;20049;-62
2023/01/01 03:50:45;;;;;;;8.43;6.25;;;;;;;0.98;89.68;97837.81;5052045;28;20049;-65
2023/01/01 03:53:24;;;;;;;11.02;6.82;;;;;;;0.99;90.32;97848.97;5052105;28;20093;-62
2023/01/01 03:56:04;;;;;;;9.13;6.43;;;;;;;1.13;90.58;97837.28;5052078;28;20049;-60
2023/01/01 03:58:36;;;;;;;8.52;6.15;;;;;;;1.17;89.67;97839.91;5051832;28;20090;-63
2023/01/01 04:01:11;;;;;;;8.15;5.93;;;;;;;1.17;89.36;97827.88;5051984;28;20049;-61
2023/01/01 04:03:40;;;;;;;10.77;7.28;;;;;;;1.17;89.01;97840.75;5051813;28;20052;-63
2023/01/01 04:06:09;;;;;;;8.82;6.00;;;;;;;1.22;89.08;97846.03;5052002;27;20074;-64
2023/01/01 04:08:36;;;;;;;8.45;5.95;;;;;;;1.14;89.59;97838.13;5051775;28;20044;-63
2023/01/01 04:12:00;;;;;;;8.05;6.68;;;;;;;1.10;89.48;97837.22;5051841;28;20042;-62
2023/01/01 04:13:56;;;;;;;10.70;6.75;;;;;;;1.10;89.50;97841.47;5051859;28;20049;-64
2023/01/01 04:16:25;;;;;;;10.05;7.00;;;;;;;1.09;90.10;97844.91;5051694;28;20139;-65
2023/01/01 04:18:52;;;;;;;8.65;6.25;;;;;;;1.15;89.96;97844.16;5051626;28;20053;-64
2023/01/01 04:21:20;;;;;;;11.02;5.63;;;;;;;1.12;89.63;97847.56;5051556;28;20052;-66
2023/01/01 04:23:47;;;;;;;9.60;5.82;;;;;;;1.11;88.82;97844.09;5051513;28;20044;-61
2023/01/01 04:26:15;;;;;;;8.38;6.10;;;;;;;1.06;89.12;97852.56;5051552;28;20045;-64
2023/01/01 04:28:43;;;;;;;9.07;6.50;;;;;;;1.02;88.85;97851.63;5051430;28;20098;-65
2023/01/01 04:31:10;;;;;;;8.13;6.07;;;;;;;0.96;89.78;97851.53;5051431;28;20049;-65
2023/01/01 04:33:39;;;;;;;9.05;6.70;;;;;;;0.98;89.85;97854.97;5051441;28;20410;-61
2023/01/01 04:36:09;;;;;;;10.52;6.78;;;;;;;1.02;90.55;97853.34;5051332;28;20105;-63
2023/01/01 04:38:37;;;;;;;13.48;6.82;;;;;;;1.10;90.36;97857.84;5051269;28;20461;-63
2023/01/01 04:41:04;;;;;;;10.23;7.05;;;;;;;1.10;89.94;97860.41;5051092;28;20049;-59
2023/01/01 04:43:32;;;;;;;12.75;8.05;;;;;;;1.13;89.64;97870.78;5051296;28;20121;-60
2023/01/01 04:46:01;;;;;;;11.10;6.22;;;;;;;1.16;89.32;97869.09;5051381;28;20541;-62
2023/01/01 04:48:29;;;;;;;10.98;6.57;;;;;;;1.03;90.04;97873.13;5051240;28;20051;-61
2023/01/01 04:51:00;;;;;;;8.70;5.97;;;;;;;0.98;90.02;97867.88;5051147;28;20050;-60
2023/01/01 04:53:28;;;;;;;;;;;;;;;1.03;90.27;97873.13;5051355;28;20063;-61
2023/01/01 04:55:56;;;;;;;8.82;6.75;;;;;;;1.02;91.07;97877.41;5050951;28;19974;-62
2023/01/01 04:58:23;;;;;;;8.90;6.13;;;;;;;1.03;91.14;97867.97;5051009;28;20045;-62
2023/01/01 05:00:51;;;;;;;8.40;5.88;;;;;;;1.07;90.63;97869.78;5050970;28;20057;-65
2023/01/01 05:03:18;;;;;;;17.48;6.03;;;;;;;1.04;90.80;97877.44;5051004;28;20124;-64
2023/01/01 05:05:46;;;;;;;11.70;6.82;;;;;;;1.06;91.01;97881.81;5050902;28;20045;-60
2023/01/01 05:08:14;;;;;;;9.20;5.82;;;;;;;1.06;90.53;97871.50;5050776;28;20052;-63
2023/01/01 05:10:41;;;;;;;8.55;6.47;;;;;;;1.11;90.12;97887.91;5050792;28;20044;-62
2023/01/01 05:13:09;;;;;;;8.77;7.20;;;;;;;1.13;89.97;97891.41;5050709;28;20056;-63
2023/01/01 05:15:37;;;;;;;9.30;6.80;;;;;;;1.12;90.03;97893.94;5050752;28;20056;-60
2023/01/01 05:18:04;;;;;;;15.52;7.85;;;;;;;1.11;90.65;97894.78;5050823;28;20045;-63
2023/01/01 05:20:31;;;;;;;16.35;8.30;;;;;;;1.18;90.83;97893.22;5050642;28;20049;-61
2023/01/01 05:22:58;;;;;;;29.70;14.77;;;;;;;1.25;90.82;97892.50;5050679;28;20049;-61
2023/01/01 05:25:27;;;;;;;25.75;11.43;;;;;;;1.24;91.89;97886.47;5050754;28;20075;-62
2023/01/01 05:27:54;;;;;;;22.38;12.60;;;;;;;1.33;91.46;97890.09;5050576;28;20052;-64
2023/01/01 05:30:22;;;;;;;9.73;7.20;;;;;;;1.21;90.33;97888.97;5050633;28;20040;-64
2023/01/01 05:32:49;;;;;;;8.55;5.90;;;;;;;1.16;90.46;97889.72;5050612;28;20091;-62
2023/01/01 05:35:16;;;;;;;12.13;8.20;;;;;;;1.11;89.90;97885.34;5050562;28;20418;-64
2023/01/01 05:37:43;;;;;;;12.15;7.63;;;;;;;1.13;89.89;97898.25;5050470;28;20053;-63
2023/01/01 05:40:11;;;;;;;10.07;7.38;;;;;;;1.17;89.76;97889.75;5050345;28;20045;-61
2023/01/01 05:42:40;;;;;;;9.18;6.38;;;;;;;1.15;89.77;97896.59;5050299;28;20460;-63
2023/01/01 05:45:08;;;;;;;11.73;7.32;;;;;;;1.18;90.75;97891.50;5050467;28;20045;-63
2023/01/01 05:47:36;;;;;;;11.35;7.72;;;;;;;1.11;91.37;97900.81;5050347;28;20049;-64
2023/01/01 05:50:03;;;;;;;11.38;7.97;;;;;;;1.09;92.09;97905.06;5050206;28;20045;-65
2023/01/01 05:52:30;;;;;;;9.93;6.70;;;;;;;1.09;91.71;97902.47;5050072;28;20045;-61
2023/01/01 05:54:58;;;;;;;12.68;7.22;;;;;;;1.18;91.58;97898.38;5050325;28;20100;-64
2023/01/01 05:57:25;;;;;;;11.10;8.18;;;;;;;1.16;90.86;97893.19;5050145;28;20049;-61
2023/01/01 05:59:53;;;;;;;14.45;8.35;;;;;;;1.21;90.76;97890.69;5050031;28;20049;-63
2023/01/01 06:02:20;;;;;;;15.68;9.35;;;;;;;1.23;90.69;97889.88;5050191;28;20045;-66
2023/01/01 06:04:47;;;;;;;12.35;7.60;;;;;;;1.29;90.91;97889.13;5050002;28;20074;-63
2023/01/01 06:07:15;;;;;;;19.17;10.45;;;;;;;1.31;90.41;97884.00;5049278;28;20128;-62
2023/01/01 06:09:42;;;;;;;16.30;9.15;;;;;;;1.44;91.00;97887.72;5050012;28;20120;-63
2023/01/01 06:12:09;;;;;;;13.35;7.78;;;;;;;1.41;90.43;97878.19;5049954;28;20098;-65
2023/01/01 06:14:36;;;;;;;9.10;7.25;;;;;;;1.37;89.85;97884.13;5050095;28;20064;-65
2023/01/01 06:17:05;;;;;;;13.73;8.32;;;;;;;1.44;90.14;97880.00;5049843;28;20056;-66
2023/01/01 06:19:32;;;;;;;10.13;7.10;;;;;;;1.47;89.86;97877.44;5049729;28;20057;-62
2023/01/01 06:21:59;;;;;;;12.25;7.07;;;;;;;1.34;89.92;97882.38;5049787;28;20056;-62
2023/01/01 06:24:26;;;;;;;11.40;7.30;;;;;;;1.32;89.89;97885.78;5049743;28;20045;-61
2023/01/01 06:26:53;;;;;;;8.88;6.47;;;;;;;1.56;91.03;97887.09;5049746;28;20060;-60
2023/01/01 06:29:20;;;;;;;8.63;6.43;;;;;;;2.47;91.47;97887.81;5049708;28;20091;-64
2023/01/01 06:31:48;;;;;;;11.25;6.03;;;;;;;4.13;86.88;97885.56;5049619;28;20088;-63
2023/01/01 06:34:17;;;;;;;5.30;4.00;;;;;;;5.93;80.92;97882.25;5049724;28;20073;-63
2023/01/01 06:36:44;;;;;;;9.88;4.07;;;;;;;7.56;70.61;97893.38;5049596;28;20045;-67
2023/01/01 06:39:11;;;;;;;4.10;3.70;;;;;;;9.28;65.89;97886.91;5049691;28;20062;-66
2023/01/01 06:41:38;;;;;;;4.25;3.25;;;;;;;10.83;60.53;97885.59;5049405;28;20061;-64
2023/01/01 06:44:06;;;;;;;4.45;3.28;;;;;;;12.13;53.10;97889.16;5049645;28;20440;-66
2023/01/01 06:46:35;;;;;;;7.22;3.30;;;;;;;13.27;50.77;97890.75;5049473;28;20077;-62
2023/01/01 06:49:04;;;;;;;3.03;2.72;;;;;;;14.47;48.27;97891.63;5049442;28;20128;-62
2023/01/01 06:51:34;;;;;;;4.40;2.95;;;;;;;15.60;44.63;97891.34;5049663;28;20049;-65
2023/01/01 06:54:04;;;;;;;3.60;2.95;;;;;;;16.62;41.50;97886.53;5049426;28;20140;-65
2023/01/01 06:56:31;;;;;;;3.47;3.05;;;;;;;17.41;39.84;97881.50;5049519;28;20092;-64
2023/01/01 06:58:59;;;;;;;3.30;3.00;;;;;;;17.89;38.19;97889.94;5049465;28;20508;-63
2023/01/01 07:01:28;;;;;;;4.85;3.17;;;;;;;18.54;37.87;97891.31;5049300;28;20057;-65
2023/01/01 07:03:57;;;;;;;3.75;2.80;;;;;;;19.40;35.74;97892.38;5049340;28;20049;-67
2023/01/01 07:06:25;;;;;;;3.00;2.70;;;;;;;20.15;34.97;97900.81;5049273;28;20472;-67
2023/01/01 07:08:55;;;;;;;3.10;2.38;;;;;;;20.60;33.05;97903.59;5049166;28;20067;-62
2023/01/01 07:11:23;;;;;;;3.27;2.70;;;;;;;20.99;32.67;97901.41;5049270;28;20045;-65
2023/01/01 07:13:50;;;;;;;3.00;2.50;;;;;;;21.45;32.47;97907.56;5049234;28;20077;-65
2023/01/01 07:16:18;;;;;;;3.10;2.88;;;;;;;21.91;31.37;97905.69;5049202;28;20136;-63
2023/01/01 07:18:47;;;;;;;3.80;2.97;;;;;;;22.28;30.26;97906.00;5051256;28;20163;-65
2023/01/01 07:21:33;;;;;;;3.20;2.77;;;;;;;22.45;30.17;97914.69;5052588;28;20140;-65
2023/01/01 07:24:04;;;;;;;3.30;2.60;;;;;;;22.56;30.27;97908.69;5052434;28;20053;-66
2023/01/01 07:26:32;;;;;;;2.40;2.20;;;;;;;22.89;29.91;97899.44;5052451;28;20056;-62
2023/01/01 07:29:04;;;;;;;3.15;2.85;;;;;;;23.22;29.28;97910.59;5052512;28;20073;-64
2023/01/01 07:31:32;;;;;;;4.72;2.50;;;;;;;23.50;28.95;97908.69;5052420;28;20041;-64
2023/01/01 07:33:59;;;;;;;4.60;2.72;;;;;;;23.68;28.94;97905.69;5052393;28;20098;-66
2023/01/01 07:36:26;;;;;;;3.67;2.97;;;;;;;23.68;29.04;97913.72;5052341;28;20049;-66
2023/01/01 07:38:54;;;;;;;4.18;2.90;;;;;;;23.70;28.64;97904.66;5052311;28;20049;-63
2023/01/01 07:41:23;;;;;;;3.10;2.80;;;;;;;23.83;29.09;97909.09;5051836;28;20421;-62
2023/01/01 07:43:50;;;;;;;3.97;3.33;;;;;;;23.96;28.67;97907.25;5052132;28;20051;-66
2023/01/01 07:46:18;;;;;;;4.50;3.97;;;;;;;24.53;27.67;97904.13;5052393;28;20055;-64
2023/01/01 07:48:46;;;;;;;4.05;3.10;;;;;;;25.10;27.40;97914.22;5052306;28;20052;-63
2023/01/01 07:51:14;;;;;;;3.63;2.90;;;;;;;25.44;26.90;97911.66;5051962;28;20478;-66
2023/01/01 07:53:42;;;;;;;3.72;3.08;;;;;;;25.81;26.27;97899.03;5052091;28;20104;-63
2023/01/01 07:56:09;;;;;;;5.30;3.65;;;;;;;25.67;26.19;97919.72;5052011;28;20507;-65
2023/01/01 07:58:41;;;;;;;6.28;3.83;;;;;;;25.85;25.65;97917.41;5051990;28;20042;-62
2023/01/01 08:01:11;;;;;;;6.05;3.65;;;;;;;25.99;25.49;97915.47;5051856;28;20132;-64
2023/01/01 08:03:38;;;;;;;4.10;3.63;;;;;;;26.28;25.37;97922.13;5051927;28;20097;-63
2023/01/01 08:06:08;;;;;;;6.28;3.53;;;;;;;26.43;25.75;97920.06;5051831;28;20081;-66
2023/01/01 08:08:37;;;;;;;4.72;3.25;;;;;;;26.28;25.25;97930.19;5051902;28;20044;-66
2023/01/01 08:11:04;;;;;;;3.53;3.17;;;;;;;26.24;25.41;97937.59;5051612;28;20048;-65
2023/01/01 08:13:32;;;;;;;4.22;3.22;;;;;;;26.33;25.72;97933.34;5051630;28;20608;-64
2023/01/01 08:16:04;;;;;;;3.95;3.55;;;;;;;26.69;24.79;97935.81;5051648;28;20122;-64
2023/01/01 08:18:34;;;;;;;4.53;3.50;;;;;;;26.88;24.07;97929.81;5051774;28;20453;-65
2023/01/01 08:21:04;;;;;;;;;;;;;;;26.83;24.39;97932.88;5052010;28;20059;-63
2023/01/01 08:23:32;;;;;;;5.05;3.70;;;;;;;27.12;24.48;97931.44;5051503;28;19969;-66
2023/01/01 08:26:00;;;;;;;5.35;4.20;;;;;;;27.35;23.86;97929.47;5051453;28;20553;-66
2023/01/01 08:28:31;;;;;;;4.15;3.60;;;;;;;27.15;24.38;97939.19;5050989;28;20055;-64
2023/01/01 08:30:59;;;;;;;4.22;3.75;;;;;;;26.48;25.19;97941.97;5051477;28;20410;-63
2023/01/01 08:33:27;;;;;;;4.25;3.65;;;;;;;25.43;26.50;97943.91;5051419;28;20049;-67
2023/01/01 08:35:54;;;;;;;3.75;3.30;;;;;;;25.44;26.21;97946.47;5051395;28;20125;-64
2023/01/01 08:38:22;;;;;;;4.05;3.30;;;;;;;25.86;25.55;97940.56;5051369;28;20066;-63
2023/01/01 08:40:49;;;;;;;4.50;3.58;;;;;;;25.82;25.56;97948.94;5050953;28;20092;-66
2023/01/01 08:43:17;;;;;;;4.38;3.53;;;;;;;24.72;27.08;97940.22;5051198;28;20098;-66
2023/01/01 08:45:45;;;;;;;4.07;3.47;;;;;;;24.14;27.72;97943.50;5051287;28;20105;-65
2023/01/01 08:48:13;;;;;;;7.53;3.15;;;;;;;23.91;27.80;97945.97;5051175;28;20070;-63
2023/01/01 08:50:43;;;;;;;4.47;3.40;;;;;;;23.62;28.11;97948.88;5051087;28;20053;-62
2023/01/01 08:53:12;;;;;;;5.05;3.40;;;;;;;23.19;28.82;97941.00;5051118;28;20060;-66
2023/01/01 08:55:39;;;;;;;4.25;3.65;;;;;;;22.84;29.60;97933.53;5050946;28;20045;-65
2023/01/01 08:58:07;;;;;;;6.93;3.83;;;;;;;22.56;29.93;97936.19;5051116;28;20051;-65
2023/01/01 09:00:35;;;;;;;4.70;3.60;;;;;;;22.17;30.60;97928.00;5050848;28;20057;-65
2023/01/01 09:03:02;;;;;;;4.13;3.80;;;;;;;21.42;31.49;97929.91;5050778;28;20097;-63
2023/01/01 09:05:29;;;;;;;4.25;3.40;;;;;;;21.36;32.23;97926.72;5050762;28;20482;-63
2023/01/01 09:07:58;;;;;;;5.22;3.78;;;;;;;21.04;32.51;97919.75;5050951;28;20045;-61
2023/01/01 09:10:26;;;;;;;4.15;3.13;;;;;;;20.42;33.06;97919.66;5050944;28;20463;-66
2023/01/01 09:12:53;;;;;;;5.72;3.80;;;;;;;19.56;35.14;97918.94;5050806;28;20056;-62
2023/01/01 09:15:21;;;;;;;4.68;3.80;;;;;;;18.73;36.76;97911.63;5050729;28;20053;-63
2023/01/01 09:17:48;;;;;;;5.57;4.25;;;;;;;18.08;37.37;97904.09;5050787;28;20502;-64
2023/01/01 09:20:15;;;;;;;5.72;3.78;;;;;;;17.69;38.66;97904.06;5050734;28;20127;-63
2023/01/01 09:22:43;;;;;;;9.88;3.47;;;;;;;17.49;38.01;97897.06;5050696;28;20088;-62
2023/01/01 09:25:11;;;;;;;5.18;3.75;;;;;;;17.35;38.24;97900.28;5050502;28;20041;-62
2023/01/01 09:27:39;;;;;;;5.10;3.35;;;;;;;17.16;37.94;97894.03;5050621;28;20398;-64
2023/01/01 09:30:08;;;;;;;5.28;4.15;;;;;;;17.09;38.94;97897.00;5050457;28;20049;-65
2023/01/01 09:32:35;;;;;;;4.28;3.60;;;;;;;16.88;39.97;97887.25;5050490;28;20045;-62
2023/01/01 09:35:04;;;;;;;5.53;4.20;;;;;;;16.66;41.02;97887.28;5050439;28;20490;-65
2023/01/01 09:37:31;;;;;;;6.57;3.72;;;;;;;16.62;41.09;97880.44;5050491;28;20078;-65
2023/01/01 09:39:58;;;;;;;5.60;3.90;;;;;;;16.50;41.22;97881.78;5049954;28;20140;-66
2023/01/01 09:42:38;;;;;;;5.63;4.05;;;;;;;16.36;41.26;97879.69;5049694;28;20049;-61
2023/01/01 09:45:21;;;;;;;3.97;3.47;;;;;;;16.32;41.37;97878.09;5050493;28;20064;-62
2023/01/01 09:47:53;;;;;;;5.90;4.13;;;;;;;16.04;41.24;97872.13;5050303;28;20053;-64
2023/01/01 09:50:24;;;;;;;5.25;4.18;;;;;;;15.98;42.25;97877.69;5050331;28;20045;-62
2023/01/01 09:52:55;;;;;;;4.55;3.80;;;;;;;15.96;42.13;97868.91;5050205;28;20098;-63
2023/01/01 09:55:27;;;;;;;5.68;4.28;;;;;;;15.73;42.82;97868.88;5050225;28;20053;-65
2023/01/01 09:57:57;;;;;;;6.03;4.35;;;;;;;15.81;42.70;97878.28;5050217;28;20060;-61
2023/01/01 10:00:25;;;;;;;5.32;3.92;;;;;;;15.81;41.77;97863.31;5050149;28;20049;-62
2023/01/01 10:03:07;;;;;;;5.13;4.10;;;;;;;15.65;43.04;97866.53;5050132;28;20558;-63
2023/01/01 10:05:44;;;;;;;5.45;4.32;;;;;;;15.64;43.46;97861.31;5049924;28;20498;-64
2023/01/01 10:08:21;;;;;;;8.77;4.70;;;;;;;15.64;43.29;97861.31;5050067;28;20084;-65
2023/01/01 10:10:52;;;;;;;7.50;4.30;;;;;;;15.73;42.68;97858.31;5049944;28;20507;-65
2023/01/01 10:13:28;;;;;;;5.70;3.70;;;;;;;15.72;42.84;97853.97;5050049;28;20045;-65
2023/01/01 10:15:59;;;;;;;3.90;3.28;;;;;;;15.81;41.98;97852.75;5049970;28;20049;-63
2023/01/01 10:18:32;;;;;;;6.13;4.07;;;;;;;15.86;42.26;97845.50;5049868;28;20102;-63
2023/01/01 10:21:06;;;;;;;5.32;4.05;;;;;;;15.96;42.22;97848.69;5049837;28;20052;-65
2023/01/01 10:23:40;;;;;;;4.80;3.58;;;;;;;16.07;41.77;97844.78;5050002;28;20049;-63
2023/01/01 10:26:13;;;;;;;4.40;3.13;;;;;;;16.02;42.30;97843.16;5049912;28;20113;-64
2023/01/01 10:28:48;;;;;;;5.18;3.75;;;;;;;15.97;42.23;97839.00;5049781;28;20045;-65
2023/01/01 10:31:17;;;;;;;5.03;3.50;;;;;;;15.88;42.35;97838.41;5049810;28;20414;-64
2023/01/01 10:33:46;;;;;;;5.45;3.50;;;;;;;15.92;41.89;97836.50;5049841;28;20049;-62
2023/01/01 10:36:18;;;;;;;5.53;3.70;;;;;;;16.01;42.33;97838.81;5049605;28;20418;-64
2023/01/01 10:38:46;;;;;;;6.15;4.68;;;;;;;16.01;42.87;97830.91;5049793;27;20102;-65
2023/01/01 10:41:14;;;;;;;7.72;5.13;;;;;;;16.11;42.74;97839.31;5049363;28;20082;-65
2023/01/01 10:43:45;;;;;;;7.68;6.10;;;;;;;16.02;43.34;97832.59;5049679;28;20045;-62
2023/01/01 10:46:13;;;;;;;;;;;;;;;16.06;43.39;97836.00;5050039;28;20394;-64
2023/01/01 10:48:41;;;;;;;8.35;6.20;;;;;;;15.94;43.50;97829.38;5049502;28;19960;-63
2023/01/01 10:51:16;;;;;;;7.50;6.47;;;;;;;15.92;43.44;97836.50;5049236;28;20045;-65
2023/01/01 10:53:51;;;;;;;12.68;7.43;;;;;;;15.94;44.42;97836.44;5052983;28;20045;-62
2023/01/01 10:56:20;;;;;;;9.23;6.65;;;;;;;15.99;44.44;97835.38;5052921;28;20083;-63
2023/01/01 10:58:50;;;;;;;9.82;7.25;;;;;;;15.99;44.29;97821.31;5053004;28;20056;-62
2023/01/01 11:01:22;;;;;;;11.70;7.18;;;;;;;15.89;44.39;97826.94;5052809;28;20079;-62
2023/01/01 11:04:00;;;;;;;10.73;8.10;;;;;;;15.91;44.10;97817.19;5052841;28;20078;-63
2023/01/01 11:06:32;;;;;;;14.98;9.32;;;;;;;15.90;44.77;97825.16;5052792;28;20053;-61
2023/01/01 11:09:04;;;;;;;12.63;7.82;;;;;;;15.92;45.02;97823.31;5052708;28;20045;-63
2023/01/01 11:11:35;;;;;;;10.05;8.32;;;;;;;15.91;44.48;97816.31;5052594;28;20056;-62
2023/01/01 11:14:15;;;;;;;10.35;8.20;;;;;;;15.95;44.51;97817.06;5052645;28;20041;-62
2023/01/01 11:16:46;;;;;;;11.57;7.35;;;;;;;15.85;44.56;97811.28;5052504;28;20059;-62
2023/01/01 11:19:23;;;;;;;10.73;7.90;;;;;;;15.85;44.77;97816.56;5052529;28;20048;-65
2023/01/01 11:21:51;;;;;;;11.20;7.75;;;;;;;15.78;44.55;97813.31;5052409;28;20132;-63
2023/01/01 11:24:23;;;;;;;12.20;9.25;;;;;;;15.75;45.30;97816.91;5052453;28;20057;-62
2023/01/01 11:26:52;;;;;;;10.18;7.97;;;;;;;15.69;44.78;97817.16;5052450;28;20396;-61
2023/01/01 11:29:26;;;;;;;12.25;8.18;;;;;;;15.66;44.85;97815.47;5052471;28;20053;-64
2023/01/01 11:31:55;;;;;;;10.52;8.25;;;;;;;15.63;44.50;97812.97;5052324;28;20413;-61
2023/01/01 11:34:32;;;;;;;10.32;7.95;;;;;;;15.61;44.72;97813.94;5052365;28;20098;-66
2023/01/01 11:37:25;;;;;;;9.43;8.00;;;;;;;15.54;44.31;97814.16;5052328;28;20059;-62
2023/01/01 11:39:56;;;;;;;8.55;7.60;;;;;;;15.32;44.07;97823.81;5052925;28;20410;-61
2023/01/01 11:42:26;;;;;;;13.68;8.80;;;;;;;15.35;45.21;97810.53;5051807;28;20096;-63
2023/01/01 11:45:00;;;;;;;11.25;7.15;;;;;;;15.31;45.17;97815.03;5052197;28;20410;-63
2023/01/01 11:47:30;;;;;;;10.93;7.88;;;;;;;15.34;44.53;97801.75;5052227;28;20041;-62
2023/01/01 11:50:04;;;;;;;9.23;6.90;;;;;;;15.35;44.94;97802.63;5052171;28;20090;-63
2023/01/01 11:52:38;;;;;;;12.10;7.40;;;;;;;15.33;45.03;97800.03;5052096;28;20080;-62